Terminal Aerodrome Forecast
Issued by NWS

Home | Current Version | Previous Version | Text Only | Print | Product List | Glossary On
Versions: 1 2 3 4 5 6 7 8 9 10 11 12 13 14 15 16 17 18 19 20 21 22 23 24 25 26 27 28 29
514
FTUS46 KSEW 281736
TAFSEA
TAF
KSEA 281736Z 2818/0124 17004KT P6SM SCT004 BKN010 BKN019
     FM282100 20010KT P6SM BKN070
     FM010300 21012G22KT P6SM -RA OVC040
     FM010700 21015G25KT 6SM -RA BKN025 BKN100
     FM011100 20014G20KT P6SM VCSH BKN025
     FM011500 20012KT P6SM BKN025
     FM012100 21010KT P6SM SCT025 BKN050=

USA.gov is the U.S. government's official web portal to all federal, state and local government web resources and services.